createdAt,value
2023-03-25T00:00:17.664Z,11.61
2023-03-25T00:02:24.570Z,11.59
2023-03-25T00:04:29.585Z,11.57
2023-03-25T00:06:35.338Z,11.54
2023-03-25T00:08:40.810Z,11.57
2023-03-25T00:10:45.732Z,11.59
2023-03-25T00:12:50.703Z,11.62
2023-03-25T00:14:58.581Z,11.61
2023-03-25T00:17:07.466Z,11.60
2023-03-25T00:19:12.380Z,11.59
2023-03-25T00:21:19.160Z,11.60
2023-03-25T00:23:24.901Z,11.62
2023-03-25T00:25:30.292Z,11.64
2023-03-25T00:27:35.234Z,11.64
2023-03-25T00:29:40.394Z,11.64
2023-03-25T00:31:45.634Z,11.53
2023-03-25T00:33:55.209Z,11.53
2023-03-25T00:36:01.970Z,11.50
2023-03-25T00:38:08.017Z,11.50
2023-03-25T00:40:13.213Z,11.50
2023-03-25T00:42:26.546Z,11.48
2023-03-25T00:44:32.213Z,11.45
2023-03-25T00:46:38.089Z,11.39
2023-03-25T00:48:43.339Z,11.38
2023-03-25T00:50:51.589Z,11.36
2023-03-25T00:52:56.630Z,11.33
2023-03-25T00:55:02.195Z,11.33
2023-03-25T00:57:07.207Z,11.33
2023-03-25T00:59:12.433Z,11.30
2023-03-25T01:01:23.650Z,11.32
2023-03-25T01:03:29.815Z,11.30
2023-03-25T01:05:34.841Z,11.23
2023-03-25T01:07:44.572Z,11.14
2023-03-25T01:09:49.931Z,11.12
2023-03-25T01:11:54.905Z,10.89
2023-03-25T01:14:01.100Z,10.87
2023-03-25T01:16:10.127Z,10.72
2023-03-25T01:18:15.629Z,10.62
2023-03-25T01:20:20.340Z,10.54
2023-03-25T01:22:25.258Z,10.50
2023-03-25T01:24:32.760Z,10.52
2023-03-25T01:26:38.106Z,10.44
2023-03-25T01:28:44.004Z,10.46
2023-03-25T01:30:48.816Z,10.45
2023-03-25T01:32:53.859Z,10.45
2023-03-25T01:34:58.824Z,10.40
2023-03-25T01:37:03.696Z,10.35
2023-03-25T01:39:10.760Z,10.40
2023-03-25T01:41:20.009Z,10.38
2023-03-25T01:43:25.931Z,10.35
2023-03-25T01:45:32.923Z,10.35
2023-03-25T01:47:38.402Z,10.29
2023-03-25T01:49:45.418Z,10.34
2023-03-25T01:51:54.150Z,10.30
2023-03-25T01:53:59.244Z,10.31
2023-03-25T01:56:05.746Z,10.22
2023-03-25T01:58:14.103Z,10.20
2023-03-25T02:00:21.669Z,10.14
2023-03-25T02:02:36.893Z,10.12
2023-03-25T02:04:50.748Z,10.06
2023-03-25T02:06:57.523Z,10.01
2023-03-25T02:09:09.231Z,9.88
2023-03-25T02:11:14.608Z,9.91
2023-03-25T02:13:25.620Z,9.90
2023-03-25T02:15:37.280Z,9.95
2023-03-25T02:17:57.025Z,9.94
2023-03-25T02:20:36.258Z,9.93
2023-03-25T02:23:16.933Z,9.94
2023-03-25T02:25:39.876Z,9.87
2023-03-25T02:27:53.982Z,9.84
2023-03-25T02:30:34.986Z,9.71
2023-03-25T02:32:59.634Z,9.71
2023-03-25T02:35:22.612Z,9.68
2023-03-25T02:38:00.439Z,9.61
2023-03-25T02:40:12.895Z,9.53
2023-03-25T02:42:24.830Z,9.51
2023-03-25T02:44:36.000Z,9.53
2023-03-25T02:46:46.410Z,9.45
2023-03-25T02:48:57.834Z,9.44
2023-03-25T02:51:07.218Z,9.44
2023-03-25T02:53:17.207Z,9.47
2023-03-25T02:55:26.804Z,9.54
2023-03-25T02:57:38.357Z,9.48
2023-03-25T02:59:44.189Z,9.43
2023-03-25T03:01:50.638Z,9.42
2023-03-25T03:03:58.218Z,9.37
2023-03-25T03:06:06.300Z,9.32
2023-03-25T03:08:35.524Z,9.36
2023-03-25T03:10:50.366Z,9.42
2023-03-25T03:13:06.668Z,9.39
2023-03-25T03:15:26.417Z,9.42
2023-03-25T03:17:41.625Z,9.42
2023-03-25T03:19:52.187Z,9.48
2023-03-25T03:22:03.988Z,9.55
2023-03-25T03:24:15.758Z,9.59
2023-03-25T03:26:29.360Z,9.63
2023-03-25T03:28:40.143Z,9.66
2023-03-25T03:30:52.390Z,9.71
2023-03-25T03:33:04.682Z,9.74
2023-03-25T03:35:16.434Z,9.77
2023-03-25T03:37:26.533Z,9.85
2023-03-25T03:39:35.132Z,9.92
2023-03-25T03:41:46.693Z,9.94
2023-03-25T03:43:55.116Z,9.98
2023-03-25T03:46:03.868Z,10.06
2023-03-25T03:48:14.875Z,10.09
2023-03-25T03:50:26.008Z,10.08
2023-03-25T03:52:37.783Z,10.07
2023-03-25T03:54:48.314Z,10.04
2023-03-25T03:57:02.068Z,10.07
2023-03-25T03:59:12.935Z,10.08
2023-03-25T04:01:30.838Z,10.09
2023-03-25T04:03:40.460Z,10.11
2023-03-25T04:05:53.343Z,10.18
2023-03-25T04:08:02.697Z,10.23
2023-03-25T04:10:15.343Z,10.20
2023-03-25T04:12:29.882Z,10.12
2023-03-25T04:14:37.543Z,10.09
2023-03-25T04:16:45.951Z,9.95
2023-03-25T04:18:53.749Z,9.84
2023-03-25T04:20:59.975Z,9.52
2023-03-25T04:23:05.279Z,9.39
2023-03-25T04:25:11.158Z,9.11
2023-03-25T04:27:16.141Z,9.16
2023-03-25T04:29:24.957Z,9.16
2023-03-25T04:31:31.073Z,9.20
2023-03-25T04:33:36.151Z,9.22
2023-03-25T04:35:41.142Z,9.21
2023-03-25T04:37:49.151Z,9.22
2023-03-25T04:39:56.264Z,9.25
2023-03-25T04:42:03.386Z,9.29
2023-03-25T04:44:09.395Z,9.26
2023-03-25T04:46:18.809Z,9.28
2023-03-25T04:48:30.281Z,9.32
2023-03-25T04:50:35.797Z,9.32
2023-03-25T04:52:40.709Z,9.32
2023-03-25T04:54:46.603Z,9.24
2023-03-25T04:56:52.071Z,9.18
2023-03-25T04:58:57.091Z,9.14
2023-03-25T05:01:06.481Z,9.14
2023-03-25T05:03:16.100Z,9.07
2023-03-25T05:05:23.043Z,8.82
2023-03-25T05:07:30.145Z,8.73
2023-03-25T05:09:35.086Z,8.56
2023-03-25T05:11:42.084Z,8.64
2023-03-25T05:13:46.933Z,8.76
2023-03-25T05:15:52.085Z,8.68
2023-03-25T05:17:57.222Z,8.57
2023-03-25T05:20:05.142Z,8.53
2023-03-25T05:22:10.068Z,8.52
2023-03-25T05:24:16.294Z,8.47
2023-03-25T05:26:21.551Z,8.44
2023-03-25T05:28:26.591Z,8.39
2023-03-25T05:30:34.034Z,8.45
2023-03-25T05:32:41.509Z,8.42
2023-03-25T05:34:46.678Z,8.39
2023-03-25T05:36:54.445Z,8.45
2023-03-25T05:38:59.424Z,8.44
2023-03-25T05:41:04.394Z,8.34
2023-03-25T05:43:09.610Z,8.36
2023-03-25T05:45:16.110Z,8.35
2023-03-25T05:47:23.872Z,8.46
2023-03-25T05:49:29.000Z,8.48
2023-03-25T05:51:37.904Z,8.54
2023-03-25T05:53:49.926Z,8.47
2023-03-25T05:55:54.909Z,8.53
2023-03-25T05:57:59.882Z,8.54
2023-03-25T06:00:04.943Z,8.55
2023-03-25T06:02:18.978Z,8.57
2023-03-25T06:04:24.022Z,8.63
2023-03-25T06:06:29.491Z,8.81
2023-03-25T06:08:35.449Z,8.89
2023-03-25T06:10:45.883Z,8.73
2023-03-25T06:12:54.472Z,8.80
2023-03-25T06:14:59.424Z,8.90
2023-03-25T06:17:05.765Z,8.83
2023-03-25T06:19:10.762Z,8.96
2023-03-25T06:21:15.666Z,9.05
2023-03-25T06:23:20.608Z,9.10
2023-03-25T06:25:26.930Z,9.02
2023-03-25T06:27:40.626Z,9.05
2023-03-25T06:29:45.787Z,8.98
2023-03-25T06:31:52.355Z,8.97
2023-03-25T06:33:59.397Z,9.12
2023-03-25T06:36:04.347Z,9.05
2023-03-25T06:38:10.082Z,9.09
2023-03-25T06:40:31.335Z,9.17
2023-03-25T06:42:42.915Z,9.26
2023-03-25T06:45:08.800Z,9.16
2023-03-25T06:47:40.765Z,9.27
2023-03-25T06:49:45.998Z,9.28
2023-03-25T06:51:51.454Z,9.27
2023-03-25T06:53:56.341Z,9.28
2023-03-25T06:56:01.381Z,9.27
2023-03-25T06:58:09.000Z,9.43
2023-03-25T07:00:14.917Z,9.30
2023-03-25T07:02:21.978Z,9.36
2023-03-25T07:04:27.108Z,9.28
2023-03-25T07:06:32.051Z,9.34
2023-03-25T07:08:37.638Z,9.46
2023-03-25T07:10:42.732Z,9.48
2023-03-25T07:12:47.765Z,9.22
2023-03-25T07:14:57.538Z,9.22
2023-03-25T07:17:02.435Z,9.27
2023-03-25T07:19:07.611Z,9.21
2023-03-25T07:21:12.292Z,9.30
2023-03-25T07:23:17.236Z,9.48
2023-03-25T07:25:22.269Z,9.62
2023-03-25T07:27:28.338Z,9.86
2023-03-25T07:29:40.595Z,10.01
2023-03-25T07:31:48.153Z,10.14
2023-03-25T07:33:53.674Z,10.14
2023-03-25T07:35:58.656Z,10.17
2023-03-25T07:38:03.560Z,9.85
2023-03-25T07:40:10.235Z,9.80
2023-03-25T07:42:15.120Z,9.72
2023-03-25T07:44:49.351Z,9.62
2023-03-25T07:46:56.951Z,9.63
2023-03-25T07:49:01.887Z,9.74
2023-03-25T07:51:09.014Z,9.84
2023-03-25T07:53:13.902Z,10.05
2023-03-25T07:55:19.916Z,10.23
2023-03-25T07:57:24.961Z,10.13
2023-03-25T07:59:30.030Z,10.15
2023-03-25T08:01:34.995Z,10.08
2023-03-25T08:03:42.916Z,9.85
2023-03-25T08:05:50.216Z,10.02
2023-03-25T08:07:55.713Z,10.07
2023-03-25T08:10:00.675Z,10.19
2023-03-25T08:12:05.655Z,10.20
2023-03-25T08:14:10.531Z,10.31
2023-03-25T08:16:16.397Z,10.25
2023-03-25T08:18:21.790Z,10.45
2023-03-25T08:20:29.425Z,10.64
2023-03-25T08:22:34.649Z,10.66
2023-03-25T08:24:39.401Z,10.74
2023-03-25T08:26:44.362Z,10.63
2023-03-25T08:28:49.879Z,10.29
2023-03-25T08:30:56.599Z,10.62
2023-03-25T08:33:01.541Z,10.49
2023-03-25T08:35:07.655Z,10.74
2023-03-25T08:37:15.580Z,10.79
2023-03-25T08:39:22.270Z,10.79
2023-03-25T08:41:27.881Z,10.94
2023-03-25T08:43:32.774Z,10.95
2023-03-25T08:45:37.863Z,10.99
2023-03-25T08:47:43.096Z,10.97
2023-03-25T08:49:47.908Z,10.97
2023-03-25T08:51:52.939Z,11.09
2023-03-25T08:54:01.212Z,11.09
2023-03-25T08:56:06.204Z,11.10
2023-03-25T08:58:11.305Z,11.29
2023-03-25T09:00:17.064Z,11.38
2023-03-25T09:02:21.964Z,11.47
2023-03-25T09:04:26.854Z,11.32
2023-03-25T09:06:47.896Z,11.38
2023-03-25T09:08:56.778Z,11.27
2023-03-25T09:11:04.295Z,11.31
2023-03-25T09:13:09.173Z,11.16
2023-03-25T09:15:15.281Z,11.31
2023-03-25T09:17:20.186Z,11.15
2023-03-25T09:19:26.425Z,11.27
2023-03-25T09:21:31.615Z,11.20
2023-03-25T09:23:36.520Z,11.39
2023-03-25T09:25:41.423Z,11.22
2023-03-25T09:27:48.956Z,11.25
2023-03-25T09:29:53.853Z,11.21
2023-03-25T09:31:59.890Z,11.38
2023-03-25T09:34:05.626Z,11.55
2023-03-25T09:36:11.858Z,11.52
2023-03-25T09:38:16.824Z,11.42
2023-03-25T09:40:24.196Z,11.56
2023-03-25T09:42:38.306Z,11.55
2023-03-25T09:44:56.712Z,11.80
2023-03-25T09:47:06.009Z,11.75
2023-03-25T09:49:19.417Z,11.82
2023-03-25T09:51:28.846Z,11.85
2023-03-25T09:53:40.504Z,11.86
2023-03-25T09:55:48.331Z,11.90
2023-03-25T09:57:58.117Z,11.81
2023-03-25T10:00:09.302Z,11.93
2023-03-25T10:02:27.931Z,12.15
2023-03-25T10:04:58.524Z,12.09
2023-03-25T10:07:17.541Z,12.05
2023-03-25T10:09:45.875Z,12.18
2023-03-25T10:12:00.874Z,12.42
2023-03-25T10:14:11.193Z,12.55
2023-03-25T10:16:29.648Z,12.34
2023-03-25T10:18:51.611Z,12.34
2023-03-25T10:21:05.675Z,12.45
2023-03-25T10:23:20.473Z,12.38
2023-03-25T10:25:30.264Z,12.47
2023-03-25T10:27:40.025Z,12.24
2023-03-25T10:29:51.283Z,12.08
2023-03-25T10:32:09.037Z,11.99
2023-03-25T10:34:20.291Z,11.81
2023-03-25T10:36:35.094Z,11.98
2023-03-25T10:38:42.212Z,12.06
2023-03-25T10:40:51.180Z,12.10
2023-03-25T10:43:06.579Z,11.83
2023-03-25T10:45:17.323Z,11.63
2023-03-25T10:47:29.758Z,11.68
2023-03-25T10:49:35.664Z,11.61
2023-03-25T10:51:41.447Z,11.56
2023-03-25T10:53:53.220Z,11.53
2023-03-25T10:56:02.369Z,11.52
2023-03-25T10:58:08.365Z,11.62
2023-03-25T11:00:20.153Z,11.57
2023-03-25T11:02:31.494Z,11.68
2023-03-25T11:04:41.737Z,11.64
2023-03-25T11:06:49.307Z,11.66
2023-03-25T11:09:18.621Z,11.53
2023-03-25T11:11:23.719Z,11.26
2023-03-25T11:13:29.761Z,10.85
2023-03-25T11:15:37.696Z,10.20
2023-03-25T11:17:46.542Z,9.67
2023-03-25T11:20:02.303Z,8.49
2023-03-25T11:22:12.424Z,7.76
2023-03-25T11:24:20.635Z,7.65
2023-03-25T11:26:30.425Z,7.62
2023-03-25T11:28:41.228Z,7.87
2023-03-25T11:31:11.804Z,8.09
2023-03-25T11:33:19.993Z,8.15
2023-03-25T11:35:27.701Z,8.35
2023-03-25T11:37:33.888Z,8.42
2023-03-25T11:39:43.480Z,8.78
2023-03-25T11:41:48.996Z,8.98
2023-03-25T11:43:54.051Z,9.26
2023-03-25T11:45:59.155Z,9.36
2023-03-25T11:48:04.744Z,9.44
2023-03-25T11:50:23.953Z,9.60
2023-03-25T11:52:31.183Z,9.82
2023-03-25T11:54:38.621Z,10.03
2023-03-25T11:56:45.739Z,10.18
2023-03-25T11:58:52.499Z,10.34
2023-03-25T12:01:04.498Z,10.37
2023-03-25T12:03:21.986Z,10.46
2023-03-25T12:05:33.479Z,10.53
2023-03-25T12:07:45.134Z,10.36
2023-03-25T12:09:57.900Z,10.44
2023-03-25T12:12:25.402Z,10.50
2023-03-25T12:14:44.628Z,10.59
2023-03-25T12:16:55.981Z,10.70
2023-03-25T12:19:13.689Z,11.00
2023-03-25T12:21:38.426Z,11.31
2023-03-25T12:23:51.444Z,11.60
2023-03-25T12:26:06.980Z,11.62
2023-03-25T12:28:49.457Z,11.54
2023-03-25T12:31:04.401Z,11.68
2023-03-25T12:33:23.862Z,11.84
2023-03-25T12:35:37.534Z,11.78
2023-03-25T12:38:10.648Z,12.05
2023-03-25T12:40:35.655Z,12.07
2023-03-25T12:42:49.851Z,11.90
2023-03-25T12:45:09.430Z,12.08
2023-03-25T12:47:24.785Z,12.17
2023-03-25T12:49:52.773Z,12.22
2023-03-25T12:52:05.971Z,12.52
2023-03-25T12:54:27.608Z,12.59
2023-03-25T12:56:44.709Z,12.57
2023-03-25T12:59:08.913Z,12.70
2023-03-25T13:01:22.788Z,12.54
2023-03-25T13:03:48.806Z,12.36
2023-03-25T13:06:00.512Z,12.13
2023-03-25T13:08:11.059Z,12.04
2023-03-25T13:10:21.828Z,11.97
2023-03-25T13:12:34.160Z,11.96
2023-03-25T13:14:43.443Z,11.66
2023-03-25T13:16:50.307Z,11.61
2023-03-25T13:19:04.012Z,11.59
2023-03-25T13:21:14.831Z,11.36
2023-03-25T13:23:24.589Z,11.30
2023-03-25T13:25:37.340Z,11.14
2023-03-25T13:27:44.540Z,11.02
2023-03-25T13:29:52.619Z,10.78
2023-03-25T13:32:00.227Z,10.70
2023-03-25T13:34:23.022Z,10.58
2023-03-25T13:36:32.248Z,10.38
2023-03-25T13:38:43.687Z,9.91
2023-03-25T13:40:57.169Z,9.74
2023-03-25T13:43:08.416Z,9.95
2023-03-25T13:45:22.051Z,10.06
2023-03-25T13:47:32.295Z,10.20
2023-03-25T13:49:44.664Z,10.27
2023-03-25T13:51:49.834Z,10.47
2023-03-25T13:53:57.989Z,10.43
2023-03-25T13:56:44.575Z,10.64
2023-03-25T13:59:06.752Z,10.68
2023-03-25T14:01:46.927Z,10.74
2023-03-25T14:04:21.784Z,10.66
2023-03-25T14:06:59.899Z,9.88
2023-03-25T14:09:37.527Z,9.16
2023-03-25T14:11:48.609Z,9.15
2023-03-25T14:14:00.553Z,9.11
2023-03-25T14:16:11.077Z,9.05
2023-03-25T14:18:20.908Z,8.96
2023-03-25T14:20:29.366Z,8.98
2023-03-25T14:22:41.357Z,9.25
2023-03-25T14:24:49.620Z,9.49
2023-03-25T14:27:02.236Z,9.64
2023-03-25T14:29:13.212Z,9.82
2023-03-25T14:31:33.022Z,9.95
2023-03-25T14:34:08.014Z,10.18
2023-03-25T14:36:13.571Z,10.34
2023-03-25T14:38:56.590Z,10.44
2023-03-25T14:41:03.795Z,10.59
2023-03-25T14:43:26.170Z,10.82
2023-03-25T14:45:59.598Z,11.01
2023-03-25T14:48:23.025Z,11.27
2023-03-25T14:50:36.404Z,11.40
2023-03-25T14:52:44.523Z,11.49
2023-03-25T14:54:56.964Z,11.66
2023-03-25T14:57:09.462Z,11.82
2023-03-25T14:59:21.466Z,11.87
2023-03-25T15:01:34.006Z,11.68
2023-03-25T15:03:44.080Z,11.75
2023-03-25T15:06:00.259Z,11.75
2023-03-25T15:08:17.914Z,11.59
2023-03-25T15:10:28.311Z,11.53
2023-03-25T15:12:33.547Z,11.56
2023-03-25T15:14:44.899Z,11.43
2023-03-25T15:17:05.623Z,11.47
2023-03-25T15:19:13.964Z,11.45
2023-03-25T15:21:19.942Z,11.46
2023-03-25T15:23:39.235Z,11.46
2023-03-25T15:25:46.311Z,11.53
2023-03-25T15:28:18.559Z,11.46
2023-03-25T15:31:00.714Z,11.40
2023-03-25T15:33:22.130Z,11.47
2023-03-25T15:35:41.220Z,11.60
2023-03-25T15:38:02.421Z,11.72
2023-03-25T15:40:18.840Z,11.98
2023-03-25T15:42:46.292Z,12.02
2023-03-25T15:45:06.750Z,11.91
2023-03-25T15:47:32.005Z,11.85
2023-03-25T15:49:49.769Z,11.91
2023-03-25T15:52:08.664Z,11.73
2023-03-25T15:54:39.693Z,11.66
2023-03-25T15:56:48.096Z,11.67
2023-03-25T15:58:58.061Z,11.66
2023-03-25T16:01:15.758Z,11.65
2023-03-25T16:03:26.447Z,11.67
2023-03-25T16:05:36.148Z,11.71
2023-03-25T16:07:41.534Z,11.82
2023-03-25T16:09:49.633Z,11.86
2023-03-25T16:12:00.967Z,11.89
2023-03-25T16:14:09.584Z,11.88
2023-03-25T16:16:16.228Z,11.83
2023-03-25T16:18:25.890Z,11.74
2023-03-25T16:20:35.240Z,11.76
2023-03-25T16:22:41.549Z,11.69
2023-03-25T16:24:47.989Z,11.76
2023-03-25T16:26:55.902Z,11.79
2023-03-25T16:29:10.672Z,11.80
2023-03-25T16:31:34.370Z,11.76
2023-03-25T16:33:43.297Z,11.79
2023-03-25T16:35:51.748Z,11.96
2023-03-25T16:37:59.074Z,12.06
2023-03-25T16:40:11.715Z,12.07
2023-03-25T16:42:24.725Z,12.18
2023-03-25T16:44:29.815Z,12.29
2023-03-25T16:46:34.978Z,12.36
2023-03-25T16:48:45.872Z,12.30
2023-03-25T16:50:52.115Z,12.27
2023-03-25T16:53:02.701Z,12.31
2023-03-25T16:55:36.918Z,12.26
2023-03-25T16:57:43.609Z,12.13
2023-03-25T16:59:51.162Z,11.99
2023-03-25T17:01:59.537Z,11.82
2023-03-25T17:04:19.093Z,11.65
2023-03-25T17:06:35.407Z,11.54
2023-03-25T17:08:40.649Z,11.51
2023-03-25T17:10:49.931Z,11.33
2023-03-25T17:12:59.566Z,11.28
2023-03-25T17:15:11.903Z,11.18
2023-03-25T17:17:34.818Z,11.12
2023-03-25T17:19:49.265Z,11.07
2023-03-25T17:22:18.962Z,11.00
2023-03-25T17:24:26.849Z,10.95
2023-03-25T17:26:36.647Z,11.01
2023-03-25T17:28:43.243Z,10.95
2023-03-25T17:30:49.297Z,10.93
2023-03-25T17:32:55.507Z,10.90
2023-03-25T17:35:07.432Z,10.87
2023-03-25T17:37:16.331Z,10.83
2023-03-25T17:39:24.058Z,10.89
2023-03-25T17:41:33.153Z,10.83
2023-03-25T17:43:43.463Z,10.80
2023-03-25T17:45:48.768Z,10.86
2023-03-25T17:47:54.417Z,10.83
2023-03-25T17:49:59.499Z,10.77
2023-03-25T17:52:08.496Z,10.77
2023-03-25T17:54:14.698Z,10.80
2023-03-25T17:56:25.262Z,10.82
2023-03-25T17:58:30.181Z,10.84
2023-03-25T18:00:36.029Z,10.82
2023-03-25T18:02:41.924Z,10.87
2023-03-25T18:04:47.076Z,10.89
2023-03-25T18:06:53.064Z,10.81
2023-03-25T18:09:01.006Z,10.81
2023-03-25T18:11:06.040Z,10.79
2023-03-25T18:13:11.165Z,10.74
2023-03-25T18:15:16.120Z,10.70
2023-03-25T18:17:21.128Z,10.63
2023-03-25T18:19:28.474Z,10.73
2023-03-25T18:21:33.512Z,10.72
2023-03-25T18:23:38.689Z,10.67
2023-03-25T18:25:48.062Z,10.72
2023-03-25T18:27:55.105Z,10.77
2023-03-25T18:29:59.981Z,10.71
2023-03-25T18:32:04.975Z,10.74
2023-03-25T18:34:11.971Z,10.74
2023-03-25T18:36:18.566Z,10.76
2023-03-25T18:38:25.089Z,10.80
2023-03-25T18:40:33.383Z,10.75
2023-03-25T18:42:40.889Z,10.71
2023-03-25T18:44:45.833Z,10.63
2023-03-25T18:46:50.764Z,10.63
2023-03-25T18:48:56.377Z,10.65
2023-03-25T18:51:02.858Z,10.67
2023-03-25T18:53:08.882Z,10.65
2023-03-25T18:55:14.335Z,10.68
2023-03-25T18:57:19.388Z,10.67
2023-03-25T18:59:26.849Z,10.63
2023-03-25T19:01:32.069Z,10.65
2023-03-25T19:03:42.035Z,10.68
2023-03-25T19:05:48.248Z,10.71
2023-03-25T19:07:53.641Z,10.71
2023-03-25T19:09:58.559Z,10.69
2023-03-25T19:12:03.438Z,10.70
2023-03-25T19:14:08.431Z,10.68
2023-03-25T19:16:15.929Z,10.64
2023-03-25T19:18:23.018Z,10.62
2023-03-25T19:20:32.370Z,10.58
2023-03-25T19:22:37.269Z,10.55
2023-03-25T19:24:42.235Z,10.50
2023-03-25T19:26:47.256Z,10.46
2023-03-25T19:28:52.277Z,10.40
2023-03-25T19:31:02.600Z,10.34
2023-03-25T19:33:10.200Z,10.35
2023-03-25T19:35:16.144Z,10.33
2023-03-25T19:37:21.248Z,10.33
2023-03-25T19:39:26.179Z,10.37
2023-03-25T19:41:31.208Z,10.40
2023-03-25T19:43:36.270Z,10.39
2023-03-25T19:45:41.197Z,10.42
2023-03-25T19:47:46.611Z,10.35
2023-03-25T19:49:54.308Z,10.41
2023-03-25T19:51:59.260Z,10.37
2023-03-25T19:54:04.139Z,10.36
2023-03-25T19:56:14.005Z,10.41
2023-03-25T19:58:20.411Z,10.37
2023-03-25T20:00:29.190Z,10.34
2023-03-25T20:02:34.227Z,10.34
2023-03-25T20:04:40.013Z,10.30
2023-03-25T20:06:48.182Z,10.31
2023-03-25T20:08:53.191Z,10.34
2023-03-25T20:10:58.483Z,10.34
2023-03-25T20:13:03.469Z,10.34
2023-03-25T20:15:10.967Z,9.85
2023-03-25T20:17:16.067Z,9.59
2023-03-25T20:19:20.985Z,9.50
2023-03-25T20:21:25.955Z,9.39
2023-03-25T20:23:33.632Z,9.34
2023-03-25T20:25:38.633Z,9.32
2023-03-25T20:27:44.519Z,9.26
2023-03-25T20:29:49.801Z,9.25
2023-03-25T20:31:54.491Z,9.14
2023-03-25T20:33:59.490Z,9.11
2023-03-25T20:36:04.454Z,9.21
2023-03-25T20:38:09.850Z,9.30
2023-03-25T20:40:30.623Z,9.29
2023-03-25T20:42:44.261Z,9.35
2023-03-25T20:44:49.313Z,9.24
2023-03-25T20:46:54.535Z,9.21
2023-03-25T20:48:59.832Z,9.21
2023-03-25T20:51:07.262Z,9.14
2023-03-25T20:53:12.276Z,9.05
2023-03-25T20:55:20.159Z,9.02
2023-03-25T20:57:25.285Z,9.07
2023-03-25T20:59:30.149Z,9.21
2023-03-25T21:01:35.528Z,9.32
2023-03-25T21:03:40.940Z,9.27
2023-03-25T21:05:47.055Z,9.19
2023-03-25T21:07:52.021Z,9.28
2023-03-25T21:09:57.297Z,9.16
2023-03-25T21:12:04.997Z,9.23
2023-03-25T21:14:10.082Z,9.29
2023-03-25T21:16:15.258Z,9.37
2023-03-25T21:18:19.924Z,9.42
2023-03-25T21:20:27.298Z,9.22
2023-03-25T21:22:32.291Z,9.23
2023-03-25T21:24:37.294Z,9.26
2023-03-25T21:26:42.261Z,9.27
2023-03-25T21:28:49.817Z,9.28
2023-03-25T21:31:03.722Z,9.28
2023-03-25T21:33:08.804Z,9.20
2023-03-25T21:35:14.020Z,9.17
2023-03-25T21:37:18.824Z,9.06
2023-03-25T21:39:23.720Z,9.01
2023-03-25T21:41:30.484Z,8.97
2023-03-25T21:43:36.441Z,8.99
2023-03-25T21:45:44.000Z,8.98
2023-03-25T21:47:53.533Z,8.90
2023-03-25T21:49:58.654Z,8.88
2023-03-25T21:52:03.925Z,8.81
2023-03-25T21:54:09.004Z,8.75
2023-03-25T21:56:15.761Z,8.72
2023-03-25T21:58:20.631Z,8.67
2023-03-25T22:00:25.700Z,8.66
2023-03-25T22:02:33.531Z,8.65
2023-03-25T22:04:38.412Z,8.68
2023-03-25T22:06:43.380Z,8.72
2023-03-25T22:08:49.232Z,8.69
2023-03-25T22:10:54.174Z,8.69
2023-03-25T22:12:59.081Z,8.66
2023-03-25T22:15:04.458Z,8.64
2023-03-25T22:17:09.562Z,8.57
2023-03-25T22:19:17.176Z,8.61
2023-03-25T22:21:24.690Z,8.51
2023-03-25T22:23:29.640Z,8.49
2023-03-25T22:25:34.542Z,8.29
2023-03-25T22:27:39.777Z,8.29
2023-03-25T22:29:44.771Z,8.22
2023-03-25T22:31:51.082Z,8.26
2023-03-25T22:33:58.692Z,8.30
2023-03-25T22:36:13.811Z,8.40
2023-03-25T22:38:18.700Z,8.50
2023-03-25T22:40:23.724Z,8.56
2023-03-25T22:42:29.797Z,8.58
2023-03-25T22:44:34.788Z,8.45
2023-03-25T22:46:40.607Z,8.49
2023-03-25T22:48:48.181Z,8.44
2023-03-25T22:50:53.138Z,8.49
2023-03-25T22:53:00.753Z,8.48
2023-03-25T22:55:08.059Z,8.45
2023-03-25T22:57:13.069Z,8.47
2023-03-25T22:59:20.528Z,8.55
2023-03-25T23:01:27.015Z,8.58
2023-03-25T23:03:32.953Z,8.54
2023-03-25T23:05:39.530Z,8.57
2023-03-25T23:07:44.402Z,8.64
2023-03-25T23:09:51.960Z,8.58
2023-03-25T23:11:56.893Z,8.58
2023-03-25T23:14:03.523Z,8.56
2023-03-25T23:16:11.388Z,8.63
2023-03-25T23:18:16.785Z,8.65
2023-03-25T23:20:21.813Z,8.61
2023-03-25T23:22:26.829Z,8.56
2023-03-25T23:24:31.833Z,8.61
2023-03-25T23:26:41.357Z,8.70
2023-03-25T23:28:47.666Z,8.71
2023-03-25T23:30:53.743Z,8.80
2023-03-25T23:32:58.725Z,8.91
2023-03-25T23:35:03.938Z,9.00
2023-03-25T23:37:10.042Z,9.02
2023-03-25T23:39:17.228Z,9.17
2023-03-25T23:41:26.053Z,9.10
2023-03-25T23:43:33.894Z,8.99
2023-03-25T23:45:39.293Z,9.00
2023-03-25T23:47:44.245Z,9.09
2023-03-25T23:49:49.423Z,9.14
2023-03-25T23:51:54.696Z,8.99
2023-03-25T23:53:59.438Z,8.96
2023-03-25T23:56:04.646Z,8.87
2023-03-25T23:58:09.561Z,8.81
